首页
METAR-TAF:

METAR-TAF

机场 :

凯法利尼亚岛, 希腊

纬度: 38-07N, 经度: 020-30E, 海拔: 19米

当前天气观测

该预报发布于3小时和26分钟前的11:50 UTC
风速7节,风向东南
温度 15°C
湿度 48%
气压 1033 hPa
能见度10公里或以上
少量云层高于1800英尺

METAR: LGKF 201150Z 14007KT 9999 FEW018 15/04 Q1033

时间: 17:16 (15:16 UTC)

预报

该预报发布于1小时和16分钟前的14:00 UTC
预报有效从20日的 15点(UTC)到 20日的 24点(UTC)
风速15节,风向
能见度10公里或以上
少量云层高于1800英尺
散云层高于7000英尺

TAF: LGKF 201400Z 2015/2024 08015KT 9999 FEW018 SCT070

超过4000个机场的气象观测和天气预报(METAR&TAF报告)。

可查询的气象台以黄色和红色小点在地图上表示。

将鼠标移到小点上方,可查看气象台名称。

然后点击查看天气观测和预报。

如需切换地图:点击带黑十字的绿色按钮放大地图;点击带横线的绿色按钮缩小地图;或者点击绿色箭头查看邻近地区的地图。


METAR-TAF: